Vancouver, British Columbia

5:31 AM PST on February 13, 2016 (GMT -0800)
Vancouver International | | Change Station
CLOSE
Current Station
Airport
Location: Vancouver,
Elevation: 13 ft
Nearby Weather Stations

Elev 13 ft 49.18 °N, 123.17 °W | Updated 31 minutes ago

Partly Cloudy
Partly Cloudy
43 °F
Feels Like 38 °F
N
9
Wind Variable Wind from East

Today
High -- | Low -- °F
--% Chance of Precip.
Yesterday
High -- | Low -- °F
Precip. -- in
Pressure 30.18 in
Visibility 15.0 miles
Clouds Few 9000 ft
Windchill 38 °F
Dew Point 39 °F
Humidity 87%
Rainfall 0.00 in
Snow Depth Not available.
7:25 AM 5:28 PM
Waxing Crescent, 30% visible
METAR CYVR 131300Z 09008KT 15SM FEW090 06/04 A3017 RMK AC2 SLP218
Pressure 30.18 in
Visibility 15.0 miles
Clouds Few 9000 ft
Windchill 38 °F
Dew Point 39 °F
Humidity 87%
Rainfall 0.00 in
Snow Depth Not available.
7:25 AM 5:28 PM
Waxing Crescent, 30% visible
METAR CYVR 131300Z 09008KT 15SM FEW090 06/04 A3017 RMK AC2 SLP218

10-Day Weather Forecast

Almanac

Astronomy

Feb. 13, 2016 Rise Set
Actual Time
Civil Twilight
Nautical Twilight
Astronomical Twilight
Moon
Length of Visible Light
Length of Day
Tomorrow will be .
, % of the Moon is Illuminated

Today's Extremes

Country Highs Country Lows

Community

WunderPhotos

Upload Photos

1,892,547 photos uploaded!

WunderBlog® & News

Nearby

Air Quality

  Air Quality AQ Index Pollutant
Not available.

Snow Depth

Station Depth Elevation

Earthquake Activity

City Distance Mag. Time & Date
Minimum magnitude displayed is 2.5.

Coastal Water Temperatures

Place Temperature

Stations

Nearby Weather Stations

Station Location Temp. Windchill Dew Point Humidity Wind Precip. Elev Updated Type
                   

Watches & Warnings

There are currently no watches in effect.